Time;durP1;ratioP1;P1;durP2;ratioP2;P2;SDS_P1;SDS_P2;PMS_P1;PMS_P2;Temp;Humidity;BMP_temperature;BMP_pressure;BME280_temperature;BME280_humidity;BME280_pressure;Samples;Min_cycle;Max_cycle;Signal;HPM_P1;HPM_P2
2022/06/21 00:02:03;;;;;;;5.28;1.27;;;18.60;74.00;;;;;;5095200;28;20081;-78
2022/06/21 00:04:29;;;;;;;5.60;1.13;;;18.60;74.20;;;;;;5094992;28;20425;-78
2022/06/21 00:07:01;;;;;;;3.72;0.90;;;18.60;74.10;;;;;;5095319;28;20020;-78
2022/06/21 00:09:27;;;;;;;5.20;0.77;;;18.60;74.10;;;;;;5095353;28;20024;-78
2022/06/21 00:11:52;;;;;;;6.85;1.13;;;18.60;74.10;;;;;;5094894;28;20177;-78
2022/06/21 00:14:18;;;;;;;3.65;1.00;;;18.60;74.00;;;;;;5094721;28;20020;-78
2022/06/21 00:16:44;;;;;;;3.28;0.88;;;18.60;74.10;;;;;;5094806;28;20020;-78
2022/06/21 00:19:21;;;;;;;5.30;1.27;;;18.60;74.10;;;;;;5094990;28;20060;-78
2022/06/21 00:21:47;;;;;;;5.57;1.55;;;18.60;74.10;;;;;;5095084;28;20016;-78
2022/06/21 00:24:16;;;;;;;3.88;0.90;;;18.50;74.30;;;;;;5094004;28;20169;-78
2022/06/21 00:26:42;;;;;;;7.70;1.40;;;18.50;74.50;;;;;;5094719;28;20023;-78
2022/06/21 00:29:08;;;;;;;8.30;1.80;;;18.60;74.50;;;;;;5094622;28;20107;-78
2022/06/21 00:31:36;;;;;;;8.40;1.58;;;18.50;74.20;;;;;;5094525;28;20490;-78
2022/06/21 00:34:16;;;;;;;9.40;2.17;;;18.20;74.70;;;;;;5094832;28;20027;-78
2022/06/21 00:36:42;;;;;;;7.95;1.52;;;18.00;75.40;;;;;;5094244;28;20024;-78
2022/06/21 00:39:11;;;;;;;5.28;1.40;;;17.50;76.50;;;;;;5094625;28;20039;-78
2022/06/21 00:41:40;;;;;;;6.45;1.40;;;17.10;77.80;;;;;;5094268;28;20488;-78
2022/06/21 00:44:11;;;;;;;4.95;1.20;;;16.90;78.70;;;;;;5094185;28;20471;-77
2022/06/21 00:46:44;;;;;;;6.40;1.50;;;16.90;79.20;;;;;;5094211;28;20046;-78
2022/06/21 00:49:25;;;;;;;3.67;0.90;;;17.00;79.00;;;;;;5093692;28;20131;-78
2022/06/21 00:52:01;;;;;;;5.32;1.25;;;17.20;78.70;;;;;;5093538;28;20028;-78
2022/06/21 00:54:35;;;;;;;6.82;1.42;;;17.30;78.30;;;;;;5093920;28;20032;-78
2022/06/21 00:57:05;;;;;;;5.43;1.08;;;17.40;78.00;;;;;;5094309;28;20097;-78
2022/06/21 00:59:33;;;;;;;2.55;0.90;;;17.40;77.80;;;;;;5094402;28;20035;-78
2022/06/21 01:02:03;;;;;;;5.47;0.95;;;17.50;77.60;;;;;;5094008;28;20023;-78
2022/06/21 01:04:34;;;;;;;3.88;0.75;;;17.60;77.50;;;;;;5093892;28;20381;-78
2022/06/21 01:07:05;;;;;;;3.80;1.10;;;17.70;77.30;;;;;;5094247;28;20016;-78
2022/06/21 01:09:46;;;;;;;4.35;0.90;;;17.80;77.10;;;;;;5094286;28;20117;-78
2022/06/21 01:12:17;;;;;;;2.67;0.70;;;17.80;76.80;;;;;;5093710;28;20158;-78
2022/06/21 01:14:52;;;;;;;2.93;0.90;;;17.90;76.60;;;;;;5093811;28;20028;-78
2022/06/21 01:17:19;;;;;;;4.07;1.08;;;17.90;76.40;;;;;;5093425;28;20027;-78
2022/06/21 01:19:48;;;;;;;3.40;0.98;;;17.90;76.50;;;;;;5093989;28;20044;-78
2022/06/21 01:22:34;;;;;;;3.42;0.90;;;17.80;76.60;;;;;;5093550;28;20403;-78
2022/06/21 01:25:21;;;;;;;4.88;1.00;;;17.80;76.70;;;;;;5093619;28;20115;-77
2022/06/21 01:27:48;;;;;;;4.68;0.98;;;17.80;76.70;;;;;;5093472;28;20072;-77
2022/06/21 01:30:14;;;;;;;3.53;0.90;;;17.80;76.80;;;;;;5093874;28;20023;-78
2022/06/21 01:32:39;;;;;;;4.70;1.33;;;17.80;77.10;;;;;;5093602;28;20020;-78
2022/06/21 01:35:17;;;;;;;5.85;1.27;;;17.80;77.00;;;;;;5093559;28;20024;-78
2022/06/21 01:37:43;;;;;;;6.07;1.13;;;17.80;76.60;;;;;;5093502;28;20035;-78
2022/06/21 01:40:25;;;;;;;4.75;1.10;;;17.70;76.80;;;;;;5093311;28;20371;-77
2022/06/21 01:42:54;;;;;;;4.88;0.98;;;17.50;77.20;;;;;;5093274;28;20581;-78
2022/06/21 01:45:28;;;;;;;5.25;1.20;;;17.40;78.20;;;;;;5093416;28;20107;-78
2022/06/21 01:48:00;;;;;;;5.03;1.05;;;17.40;77.60;;;;;;5093234;28;20031;-78
2022/06/21 01:50:26;;;;;;;3.53;0.90;;;17.40;77.70;;;;;;5093303;28;20058;-77
2022/06/21 01:52:54;;;;;;;6.68;0.95;;;17.40;78.10;;;;;;5093225;28;20539;-77
2022/06/21 01:55:28;;;;;;;2.35;0.82;;;17.40;77.70;;;;;;5093606;28;20020;-78
2022/06/21 01:57:56;;;;;;;4.38;1.23;;;17.40;77.60;;;;;;5093402;28;20422;-77
2022/06/21 02:00:21;;;;;;;4.97;0.70;;;17.40;77.70;;;;;;5093329;28;20182;-78
2022/06/21 02:02:57;;;;;;;4.85;0.77;;;17.30;77.90;;;;;;5093185;28;20107;-78
2022/06/21 02:05:30;;;;;;;4.20;0.57;;;17.40;78.00;;;;;;5093226;28;20039;-78
2022/06/21 02:08:00;;;;;;;3.90;0.80;;;17.40;77.70;;;;;;5093502;28;20020;-78
2022/06/21 02:10:44;;;;;;;7.35;1.02;;;17.50;77.60;;;;;;5093223;28;20020;-78
2022/06/21 02:13:44;;;;;;;4.45;0.82;;;17.60;77.40;;;;;;5093399;28;20030;-78
2022/06/21 02:16:18;;;;;;;2.70;0.65;;;17.60;77.20;;;;;;5082061;28;20035;-77
2022/06/21 02:18:48;;;;;;;2.70;0.50;;;17.70;77.20;;;;;;5092932;28;20383;-78
2022/06/21 02:21:41;;;;;;;3.83;0.50;;;17.70;77.90;;;;;;5093186;28;20102;-78
2022/06/21 02:24:12;;;;;;;8.55;0.88;;;17.70;77.00;;;;;;5090223;28;20492;-78
2022/06/21 02:26:38;;;;;;;5.45;0.60;;;17.70;76.90;;;;;;5093231;28;20107;-78
2022/06/21 02:29:04;;;;;;;4.30;0.80;;;17.70;76.90;;;;;;5092762;28;20070;-78
2022/06/21 02:31:31;;;;;;;5.25;1.02;;;17.70;77.00;;;;;;5093233;28;20023;-78
2022/06/21 02:34:01;;;;;;;5.13;0.77;;;17.60;76.90;;;;;;5092778;28;20035;-78
2022/06/21 02:36:32;;;;;;;3.88;0.70;;;17.50;77.30;;;;;;5093147;28;20069;-78
2022/06/21 02:39:05;;;;;;;7.68;1.17;;;17.50;77.40;;;;;;5093167;28;20020;-78
2022/06/21 02:41:36;;;;;;;5.18;1.20;;;17.50;77.40;;;;;;5092699;28;20031;-78
2022/06/21 02:44:14;;;;;;;3.47;0.90;;;17.60;77.30;;;;;;5092760;28;20586;-78
2022/06/21 02:46:49;;;;;;;3.75;0.85;;;17.60;77.20;;;;;;5093541;28;20025;-78
2022/06/21 02:49:21;;;;;;;5.65;1.42;;;17.60;77.30;;;;;;5096493;28;20048;-78
2022/06/21 02:52:12;;;;;;;4.40;0.60;;;17.60;77.30;;;;;;5096774;28;20035;-78
2022/06/21 02:55:02;;;;;;;5.07;1.00;;;17.60;77.50;;;;;;5089259;28;20028;-78
2022/06/21 02:57:37;;;;;;;6.47;0.75;;;17.40;77.50;;;;;;5096396;28;20038;-78
2022/06/21 03:00:12;;;;;;;4.90;1.10;;;17.40;77.90;;;;;;5096641;28;20039;-78
2022/06/21 03:02:38;;;;;;;6.90;1.10;;;17.30;78.10;;;;;;5096467;28;20115;-78
2022/06/21 03:05:10;;;;;;;6.57;1.27;;;17.10;78.70;;;;;;5095747;28;20115;-78
2022/06/21 03:07:42;;;;;;;5.63;0.90;;;16.80;79.50;;;;;;5096474;28;20020;-78
2022/06/21 03:10:16;;;;;;;3.80;0.93;;;16.70;80.00;;;;;;5096498;28;20432;-78
2022/06/21 03:12:42;;;;;;;4.15;1.05;;;16.70;80.10;;;;;;5096334;28;20016;-78
2022/06/21 03:15:11;;;;;;;6.03;1.30;;;16.70;80.30;;;;;;5095741;28;20062;-78
2022/06/21 03:17:43;;;;;;;6.80;2.03;;;16.70;80.50;;;;;;5096319;28;20102;-78
2022/06/21 03:20:19;;;;;;;3.13;1.15;;;16.60;80.70;;;;;;5096156;28;20021;-78
2022/06/21 03:22:46;;;;;;;3.58;0.98;;;16.50;80.80;;;;;;5095941;28;20035;-78
2022/06/21 03:25:42;;;;;;;3.97;0.73;;;16.50;81.00;;;;;;5095739;28;20032;-78
2022/06/21 03:28:41;;;;;;;3.22;1.13;;;16.50;81.00;;;;;;5084878;28;20028;-77
2022/06/21 03:31:20;;;;;;;5.55;0.93;;;16.60;81.00;;;;;;5062144;28;20032;-77
2022/06/21 03:33:50;;;;;;;5.30;0.98;;;16.60;80.80;;;;;;5096057;28;20028;-77
2022/06/21 03:36:19;;;;;;;3.60;0.93;;;16.40;81.10;;;;;;5095530;28;20036;-77
2022/06/21 03:38:52;;;;;;;6.18;1.42;;;16.40;81.70;;;;;;5095641;28;20035;-77
2022/06/21 03:44:26;;;;;;;4.43;0.80;;;16.30;82.00;;;;;;5095657;28;20063;-78
2022/06/21 03:47:11;;;;;;;4.00;1.02;;;16.40;82.30;;;;;;5095764;28;20016;-78
2022/06/21 03:49:55;;;;;;;5.13;1.27;;;16.40;82.10;;;;;;5095227;28;20147;-77
2022/06/21 03:52:46;;;;;;;6.38;1.30;;;16.40;82.30;;;;;;5095509;28;20091;-77
2022/06/21 03:55:45;;;;;;;4.38;0.82;;;16.30;82.60;;;;;;5095380;28;20418;-78
2022/06/21 03:58:34;;;;;;;3.47;0.63;;;16.30;83.00;;;;;;5095124;28;20428;-77
2022/06/21 04:01:09;;;;;;;8.88;1.08;;;16.40;82.90;;;;;;5095550;28;20382;-77
2022/06/21 04:04:10;;;;;;;4.47;0.50;;;16.50;82.70;;;;;;5095139;28;20375;-77
2022/06/21 04:06:55;;;;;;;6.10;1.58;;;16.60;82.50;;;;;;5095284;28;20047;-78
2022/06/21 04:09:48;;;;;;;5.55;0.70;;;16.70;82.10;;;;;;5095079;28;20069;-78
2022/06/21 04:12:17;;;;;;;4.32;0.85;;;16.90;82.10;;;;;;5095146;28;20081;-78
2022/06/21 04:14:46;;;;;;;5.13;1.70;;;16.90;82.00;;;;;;5095028;28;20086;-78
2022/06/21 04:17:35;;;;;;;6.15;1.15;;;17.00;81.90;;;;;;5095003;28;20089;-78
2022/06/21 04:20:09;;;;;;;3.55;0.50;;;17.00;81.70;;;;;;5086591;28;20541;-78
2022/06/21 04:23:13;;;;;;;3.80;0.80;;;17.10;81.70;;;;;;5094732;28;20073;-78
2022/06/21 04:26:00;;;;;;;;;;;17.20;81.70;;;;;;5095103;28;20028;-78
2022/06/21 04:28:35;;;;;;;4.28;0.80;;;17.20;81.40;;;;;;5094304;28;19908;-78
2022/06/21 04:31:04;;;;;;;8.25;1.52;;;17.30;81.20;;;;;;5094920;28;20020;-78
2022/06/21 04:33:52;;;;;;;4.20;0.90;;;17.20;81.40;;;;;;5094712;28;20093;-78
2022/06/21 04:36:23;;;;;;;5.55;0.77;;;17.10;81.70;;;;;;5094694;28;20039;-78
2022/06/21 04:39:20;;;;;;;5.35;0.90;;;17.10;81.70;;;;;;5094307;28;20039;-78
2022/06/21 04:41:56;;;;;;;4.55;0.75;;;17.20;81.80;;;;;;5073246;28;20047;-78
2022/06/21 04:44:45;;;;;;;3.08;0.68;;;17.20;81.80;;;;;;5094146;28;20043;-78
2022/06/21 04:47:21;;;;;;;5.35;0.80;;;17.20;81.60;;;;;;5094352;28;20027;-78
2022/06/21 04:49:54;;;;;;;5.28;1.00;;;17.30;81.70;;;;;;5093798;28;20494;-78
2022/06/21 04:52:24;;;;;;;4.18;0.70;;;17.30;81.70;;;;;;5094118;28;20101;-78
2022/06/21 04:54:50;;;;;;;3.85;0.68;;;17.40;81.60;;;;;;5093913;28;20020;-78
2022/06/21 04:57:21;;;;;;;6.05;0.70;;;17.40;81.60;;;;;;5094177;28;20040;-78
2022/06/21 05:00:11;;;;;;;5.80;1.15;;;17.30;81.50;;;;;;5093932;28;20047;-78
2022/06/21 05:02:41;;;;;;;6.78;1.27;;;17.30;81.80;;;;;;5085847;28;20383;-78
2022/06/21 05:05:25;;;;;;;6.07;1.13;;;17.30;82.00;;;;;;5094124;28;20036;-78
2022/06/21 05:07:58;;;;;;;10.07;1.45;;;17.20;82.50;;;;;;5093886;28;20365;-78
2022/06/21 05:10:28;;;;;;;5.45;1.10;;;17.00;83.20;;;;;;5093025;28;20463;-78
2022/06/21 05:12:57;;;;;;;9.15;0.70;;;16.90;83.80;;;;;;5093625;28;20488;-78
2022/06/21 05:15:27;;;;;;;8.55;1.08;;;16.80;84.30;;;;;;5093803;28;20051;-78
2022/06/21 05:18:01;;;;;;;5.90;0.73;;;16.80;85.00;;;;;;5093675;28;20047;-78
2022/06/21 05:20:32;;;;;;;7.28;1.00;;;16.70;85.30;;;;;;5093115;28;20127;-78
2022/06/21 05:23:01;;;;;;;8.15;1.00;;;16.60;86.10;;;;;;5093211;28;20089;-77
2022/06/21 05:25:29;;;;;;;7.38;0.80;;;16.40;87.00;;;;;;5093369;28;20384;-78
2022/06/21 05:28:21;;;;;;;8.60;1.13;;;16.30;87.90;;;;;;5093646;28;20032;-78
2022/06/21 05:31:10;;;;;;;8.10;0.82;;;16.20;88.70;;;;;;5081926;28;20028;-77
2022/06/21 05:34:02;;;;;;;6.72;0.85;;;15.90;90.00;;;;;;5093562;28;20079;-78
2022/06/21 05:36:36;;;;;;;5.93;1.00;;;15.90;90.40;;;;;;5089832;28;20122;-76
2022/06/21 05:39:11;;;;;;;9.38;1.15;;;15.70;90.80;;;;;;5093504;28;20035;-77
2022/06/21 05:41:43;;;;;;;8.95;0.80;;;15.70;91.10;;;;;;5092627;28;20016;-77
2022/06/21 05:44:08;;;;;;;6.32;0.70;;;15.70;91.10;;;;;;5093301;28;20383;-77
2022/06/21 05:46:39;;;;;;;8.68;1.45;;;15.80;91.00;;;;;;5092869;28;20024;-78
2022/06/21 05:49:08;;;;;;;8.80;0.98;;;15.90;91.10;;;;;;5093195;28;20055;-78
2022/06/21 05:51:34;;;;;;;6.50;0.95;;;15.80;90.90;;;;;;5093324;28;20048;-78
2022/06/21 05:54:06;;;;;;;5.63;0.60;;;15.90;91.00;;;;;;5092867;28;20028;-78
2022/06/21 05:56:34;;;;;;;3.80;0.85;;;15.90;90.90;;;;;;5092666;28;20029;-77
2022/06/21 05:59:18;;;;;;;4.03;0.40;;;16.10;90.70;;;;;;5093287;28;20024;-78
2022/06/21 06:01:46;;;;;;;5.63;0.50;;;16.30;90.30;;;;;;5092969;28;20520;-78
2022/06/21 06:04:41;;;;;;;5.38;0.77;;;16.50;90.00;;;;;;5092887;28;20036;-78
2022/06/21 06:07:21;;;;;;;5.97;0.70;;;16.60;89.80;;;;;;5092796;28;20028;-78
2022/06/21 06:09:50;;;;;;;6.18;0.60;;;16.60;89.90;;;;;;5092703;28;20106;-78
2022/06/21 06:12:26;;;;;;;6.95;0.68;;;16.70;89.30;;;;;;5092834;28;20016;-78
2022/06/21 06:15:39;;;;;;;6.57;0.57;;;16.80;89.10;;;;;;5092628;28;20103;-77
2022/06/21 06:18:10;;;;;;;4.28;0.50;;;17.00;88.70;;;;;;5090698;28;20116;-78
2022/06/21 06:20:39;;;;;;;4.68;0.50;;;17.00;87.50;;;;;;5093089;28;20024;-77
2022/06/21 06:23:17;;;;;;;8.00;0.77;;;17.10;87.50;;;;;;5095929;28;20020;-78
2022/06/21 06:25:48;;;;;;;9.40;0.73;;;17.10;87.40;;;;;;5096658;28;20032;-77
2022/06/21 06:28:22;;;;;;;5.78;0.80;;;17.10;87.00;;;;;;5096887;28;20099;-77
2022/06/21 06:31:04;;;;;;;6.82;0.80;;;17.10;87.30;;;;;;5097011;28;20024;-77
2022/06/21 06:33:38;;;;;;;4.65;0.50;;;17.00;87.40;;;;;;5096657;28;20035;-77
2022/06/21 06:36:10;;;;;;;3.85;0.50;;;16.90;87.60;;;;;;5096305;28;20348;-77
2022/06/21 06:38:36;;;;;;;7.60;0.85;;;17.10;87.70;;;;;;5096333;28;20056;-78
2022/06/21 06:41:14;;;;;;;3.60;0.95;;;17.20;87.60;;;;;;5096718;28;20426;-78
2022/06/21 06:43:47;;;;;;;9.90;1.98;;;17.30;86.80;;;;;;5096686;28;20020;-77
2022/06/21 06:46:23;;;;;;;5.10;0.70;;;17.50;86.80;;;;;;5096549;28;20115;-77
2022/06/21 06:48:49;;;;;;;5.43;0.60;;;17.60;86.50;;;;;;5096441;28;20032;-77
2022/06/21 06:51:14;;;;;;;5.57;0.70;;;17.70;86.10;;;;;;5096432;28;20027;-77
2022/06/21 06:53:49;;;;;;;5.95;1.00;;;17.70;85.10;;;;;;5096061;28;20023;-77
2022/06/21 06:56:21;;;;;;;4.22;0.40;;;17.70;85.20;;;;;;5096421;28;20031;-77
2022/06/21 06:58:57;;;;;;;6.30;0.93;;;17.70;85.60;;;;;;5096003;28;20480;-77
2022/06/21 07:01:38;;;;;;;8.57;0.82;;;17.70;85.70;;;;;;5096500;28;20032;-77
2022/06/21 07:04:05;;;;;;;8.43;0.85;;;17.80;86.00;;;;;;5095935;28;20028;-77
2022/06/21 07:06:42;;;;;;;6.13;1.30;;;17.90;85.20;;;;;;5096026;28;20375;-77
2022/06/21 07:09:23;;;;;;;5.20;0.45;;;17.90;84.70;;;;;;5095942;28;20165;-78
2022/06/21 07:11:54;;;;;;;8.30;0.82;;;18.00;84.10;;;;;;5096158;28;20115;-78
2022/06/21 07:14:23;;;;;;;6.57;0.90;;;18.00;83.70;;;;;;5096127;28;20384;-78
2022/06/21 07:17:14;;;;;;;7.72;1.35;;;18.10;83.90;;;;;;5095984;28;20025;-78
2022/06/21 07:19:40;;;;;;;9.70;2.75;;;18.20;83.80;;;;;;5096159;28;20375;-78
2022/06/21 07:22:16;;;;;;;12.30;3.85;;;18.20;83.60;;;;;;5096197;28;20031;-78
2022/06/21 07:24:50;;;;;;;13.18;3.72;;;18.30;83.80;;;;;;5095727;28;20123;-78
2022/06/21 07:27:17;;;;;;;21.40;7.65;;;18.40;83.50;;;;;;5096021;28;20048;-78
2022/06/21 07:30:16;;;;;;;23.75;7.35;;;18.50;82.60;;;;;;5095941;28;20028;-78
2022/06/21 07:33:04;;;;;;;20.15;7.60;;;18.50;82.50;;;;;;5061801;28;20111;-78
2022/06/21 07:35:47;;;;;;;21.52;5.15;;;18.60;83.00;;;;;;5095525;28;20035;-78
2022/06/21 07:38:23;;;;;;;11.20;3.00;;;18.50;82.80;;;;;;5095559;28;20463;-77
2022/06/21 07:41:06;;;;;;;7.00;1.90;;;18.50;82.70;;;;;;5095499;28;20107;-77
2022/06/21 07:43:50;;;;;;;7.70;1.70;;;18.50;82.50;;;;;;5095333;28;20468;-77
2022/06/21 07:46:30;;;;;;;7.18;1.30;;;18.60;82.40;;;;;;5095704;28;20032;-77
2022/06/21 07:49:33;;;;;;;5.38;1.00;;;18.70;82.00;;;;;;5095109;28;20120;-77
2022/06/21 07:52:04;;;;;;;6.10;1.15;;;18.90;80.70;;;;;;5095344;28;20471;-77
2022/06/21 07:54:45;;;;;;;5.38;1.10;;;19.10;80.10;;;;;;5095346;28;20028;-78
2022/06/21 07:57:16;;;;;;;7.63;0.70;;;19.00;80.30;;;;;;5095226;28;20016;-77
2022/06/21 07:59:49;;;;;;;4.07;0.65;;;19.20;80.70;;;;;;5094794;28;20020;-77
2022/06/21 08:08:26;;;;;;;5.45;0.98;;;19.50;78.00;;;;;;5094832;28;20156;-78
2022/06/21 08:11:06;;;;;;;2.95;0.60;;;19.50;77.80;;;;;;5095072;28;20020;-78
2022/06/21 08:13:32;;;;;;;7.05;0.68;;;19.60;77.30;;;;;;5095003;28;20020;-78
2022/06/21 08:16:02;;;;;;;3.47;0.70;;;19.80;76.80;;;;;;5094614;28;20115;-78
2022/06/21 08:18:34;;;;;;;5.20;0.80;;;19.90;75.70;;;;;;5095064;28;20023;-78
2022/06/21 08:21:11;;;;;;;6.38;0.82;;;20.00;74.90;;;;;;5094476;28;20460;-78
2022/06/21 08:23:48;;;;;;;4.22;0.73;;;19.90;74.40;;;;;;5094817;28;20039;-78
2022/06/21 08:26:21;;;;;;;6.53;0.93;;;20.00;74.60;;;;;;5094583;28;20420;-78
2022/06/21 08:29:14;;;;;;;3.00;0.60;;;20.10;74.90;;;;;;5094524;28;20020;-78
2022/06/21 08:31:45;;;;;;;4.45;0.70;;;20.30;73.80;;;;;;5093953;28;20028;-78
2022/06/21 08:34:23;;;;;;;4.45;0.77;;;20.40;74.00;;;;;;5094622;28;20032;-78
2022/06/21 08:37:24;;;;;;;2.90;0.57;;;20.40;73.00;;;;;;5094423;28;20027;-78
2022/06/21 08:40:04;;;;;;;4.38;0.60;;;20.40;72.50;;;;;;5094509;28;20028;-78
2022/06/21 08:42:55;;;;;;;6.20;1.23;;;20.60;71.80;;;;;;5094219;28;20460;-78
2022/06/21 08:45:46;;;;;;;5.25;0.63;;;20.70;72.30;;;;;;5093276;28;20115;-78
2022/06/21 08:48:24;;;;;;;3.15;0.60;;;20.80;71.90;;;;;;5092928;28;20028;-78
2022/06/21 08:51:08;;;;;;;6.30;0.93;;;20.90;70.90;;;;;;5094041;28;20107;-78
2022/06/21 08:53:52;;;;;;;5.28;0.60;;;21.00;70.30;;;;;;5094116;28;20024;-78
2022/06/21 08:56:26;;;;;;;5.88;0.68;;;21.00;69.70;;;;;;5094102;28;20024;-78
2022/06/21 08:59:23;;;;;;;5.05;0.50;;;21.00;69.50;;;;;;5093773;28;20440;-79
2022/06/21 09:02:34;;;;;;;4.07;0.40;;;21.00;69.70;;;;;;5093729;28;20081;-78
2022/06/21 09:05:38;;;;;;;5.47;0.52;;;21.20;69.70;;;;;;5094124;28;20111;-79
2022/06/21 09:08:19;;;;;;;2.90;0.50;;;21.20;67.40;;;;;;5094107;28;20120;-79
2022/06/21 09:11:17;;;;;;;3.47;0.45;;;21.30;67.00;;;;;;5093799;28;20101;-79
2022/06/21 09:14:01;;;;;;;5.38;0.70;;;21.30;65.90;;;;;;5081181;28;20042;-79
2022/06/21 09:16:58;;;;;;;3.70;0.50;;;21.40;65.10;;;;;;5093603;28;20048;-79
2022/06/21 09:19:24;;;;;;;4.20;0.68;;;21.40;66.80;;;;;;5093723;28;20028;-78
2022/06/21 09:22:19;;;;;;;3.33;0.43;;;21.20;67.20;;;;;;5093888;28;20020;-79
2022/06/21 09:25:21;;;;;;;2.33;0.35;;;21.10;68.40;;;;;;5093249;28;20032;-79
2022/06/21 09:27:49;;;;;;;3.53;0.50;;;21.20;66.60;;;;;;5093437;28;20024;-79
2022/06/21 09:30:18;;;;;;;4.78;0.63;;;21.40;65.70;;;;;;5093265;28;20085;-78
2022/06/21 09:32:52;;;;;;;3.25;0.55;;;21.50;66.10;;;;;;5093500;28;20028;-78
2022/06/21 09:35:40;;;;;;;6.45;0.40;;;21.70;65.60;;;;;;5093474;28;20400;-78
2022/06/21 09:38:42;;;;;;;3.88;0.63;;;21.90;65.70;;;;;;5093211;28;20034;-78
2022/06/21 09:41:20;;;;;;;5.78;0.60;;;21.90;64.90;;;;;;5093355;28;20016;-78
2022/06/21 09:44:13;;;;;;;2.85;0.60;;;21.90;64.50;;;;;;5093192;28;20075;-78
2022/06/21 09:46:52;;;;;;;5.57;0.50;;;21.90;65.40;;;;;;5092761;28;20031;-78
2022/06/21 09:49:37;;;;;;;4.25;0.70;;;21.90;64.80;;;;;;5093084;28;20055;-78
2022/06/21 09:52:21;;;;;;;2.67;0.60;;;22.00;66.10;;;;;;5093595;28;20080;-79
2022/06/21 09:55:07;;;;;;;4.53;0.98;;;22.00;64.80;;;;;;5093288;28;20043;-79
2022/06/21 09:57:42;;;;;;;3.42;0.63;;;22.00;65.10;;;;;;5099802;28;20024;-79
2022/06/21 10:00:37;;;;;;;8.05;0.90;;;21.80;65.10;;;;;;5099633;28;20042;-78
2022/06/21 10:03:24;;;;;;;3.60;0.80;;;21.60;64.60;;;;;;5073635;28;20399;-79
2022/06/21 10:06:19;;;;;;;3.67;0.30;;;21.60;65.00;;;;;;5099904;28;20027;-78
2022/06/21 10:09:29;;;;;;;4.75;0.80;;;21.40;65.60;;;;;;5077318;28;20111;-78
2022/06/21 10:12:36;;;;;;;2.28;0.52;;;21.40;64.50;;;;;;5051346;28;20111;-78
2022/06/21 10:15:20;;;;;;;2.47;0.47;;;21.20;63.70;;;;;;5065380;28;20487;-79
2022/06/21 10:18:23;;;;;;;4.05;0.60;;;21.20;64.60;;;;;;5099711;28;20028;-78
2022/06/21 10:21:06;;;;;;;2.50;0.57;;;21.20;63.80;;;;;;5099421;28;20033;-78
2022/06/21 10:23:37;;;;;;;2.35;0.30;;;21.30;64.70;;;;;;5099770;28;20112;-79
2022/06/21 10:26:15;;;;;;;3.92;0.57;;;21.60;64.50;;;;;;5100058;28;20066;-79
2022/06/21 10:29:14;;;;;;;1.35;0.30;;;21.80;63.60;;;;;;5099820;28;20044;-78
2022/06/21 10:31:51;;;;;;;1.48;0.35;;;21.90;63.40;;;;;;5100037;28;20016;-79
2022/06/21 10:34:31;;;;;;;2.33;0.40;;;22.00;62.50;;;;;;5099955;28;20073;-79
2022/06/21 10:37:20;;;;;;;2.72;0.32;;;22.00;61.00;;;;;;5099761;28;20395;-78
2022/06/21 10:40:13;;;;;;;2.90;0.30;;;22.10;61.50;;;;;;5099752;28;20016;-79
2022/06/21 10:42:47;;;;;;;3.40;0.20;;;22.30;60.00;;;;;;5099922;28;20042;-79
2022/06/21 10:45:37;;;;;;;2.08;0.20;;;22.20;59.90;;;;;;5099412;28;20118;-78
2022/06/21 10:48:30;;;;;;;1.92;0.30;;;22.10;60.40;;;;;;5099029;28;20020;-79
2022/06/21 10:51:18;;;;;;;2.10;0.30;;;22.20;61.50;;;;;;5099467;28;20036;-79
2022/06/21 10:54:23;;;;;;;3.13;0.30;;;22.20;61.20;;;;;;5099524;28;20028;-78
2022/06/21 10:57:20;;;;;;;2.22;0.40;;;22.30;61.70;;;;;;5098724;28;20028;-78
2022/06/21 11:02:33;;;;;;;3.83;0.30;;;22.40;60.10;;;;;;5099451;28;20513;-78
2022/06/21 11:05:08;;;;;;;2.90;0.28;;;22.40;59.80;;;;;;5099261;28;20036;-78
2022/06/21 11:07:53;;;;;;;2.75;0.30;;;22.60;59.90;;;;;;5097368;28;20384;-79
2022/06/21 11:10:49;;;;;;;1.25;0.20;;;22.80;59.50;;;;;;5096285;28;20102;-78
2022/06/21 11:13:19;;;;;;;3.63;0.40;;;22.90;60.20;;;;;;5088983;28;20039;-79
2022/06/21 11:16:09;;;;;;;1.58;0.17;;;22.90;59.00;;;;;;5095741;28;20039;-78
2022/06/21 11:18:40;;;;;;;2.50;0.43;;;22.70;60.00;;;;;;5095400;28;20024;-79
2022/06/21 11:21:25;;;;;;;2.08;0.30;;;22.80;60.00;;;;;;5095505;28;20028;-79
2022/06/21 11:24:14;;;;;;;4.20;0.38;;;23.00;58.70;;;;;;5095310;28;20115;-79
2022/06/21 11:26:55;;;;;;;0.80;0.20;;;23.10;58.70;;;;;;5095417;28;20027;-79
2022/06/21 11:29:45;;;;;;;2.08;0.40;;;23.10;58.10;;;;;;5096094;28;20016;-79
2022/06/21 11:32:17;;;;;;;1.17;0.20;;;23.40;57.00;;;;;;5095694;28;20051;-79
2022/06/21 11:35:07;;;;;;;2.83;0.30;;;23.40;56.50;;;;;;5095598;28;20426;-79
2022/06/21 11:37:54;;;;;;;3.53;0.20;;;23.30;57.50;;;;;;5096027;28;20059;-79
2022/06/21 11:40:34;;;;;;;4.35;0.30;;;23.30;57.80;;;;;;5095610;28;20024;-79
2022/06/21 11:43:03;;;;;;;2.20;0.35;;;23.40;57.10;;;;;;5095551;28;20027;-79
2022/06/21 11:45:48;;;;;;;3.30;0.63;;;23.60;58.30;;;;;;5095582;28;20032;-79
2022/06/21 11:48:33;;;;;;;3.17;0.20;;;23.70;56.60;;;;;;5095271;28;20024;-79
2022/06/21 11:51:10;;;;;;;2.28;0.35;;;23.90;56.00;;;;;;5095464;28;20036;-78
2022/06/21 11:53:48;;;;;;;1.55;0.22;;;24.10;56.40;;;;;;5095301;28;20020;-78
2022/06/21 11:56:50;;;;;;;2.00;0.20;;;24.20;55.80;;;;;;5095022;28;20048;-78
2022/06/21 11:59:27;;;;;;;1.90;0.20;;;24.20;54.90;;;;;;5095039;28;20060;-78
2022/06/21 12:01:55;;;;;;;3.38;0.40;;;24.10;55.10;;;;;;5095422;28;20028;-78
2022/06/21 12:04:57;;;;;;;2.25;0.20;;;23.90;54.00;;;;;;5094933;28;20016;-78
2022/06/21 12:07:35;;;;;;;6.00;0.32;;;23.60;54.60;;;;;;5095099;28;20036;-78
2022/06/21 12:10:19;;;;;;;1.67;0.20;;;23.70;55.30;;;;;;5094732;28;20511;-78
2022/06/21 12:12:56;;;;;;;2.47;0.20;;;23.70;53.40;;;;;;5094782;28;20024;-78
2022/06/21 12:15:44;;;;;;;1.67;0.30;;;23.60;54.50;;;;;;5094417;28;20035;-78
2022/06/21 12:18:18;;;;;;;0.95;0.20;;;23.60;53.60;;;;;;5094415;28;20044;-78
2022/06/21 12:21:00;;;;;;;4.53;0.43;;;23.60;53.40;;;;;;5093409;28;20492;-78
2022/06/21 12:23:37;;;;;;;4.32;0.20;;;23.70;53.60;;;;;;5093983;28;20031;-78
2022/06/21 12:26:05;;;;;;;0.93;0.30;;;23.70;53.60;;;;;;5094747;28;20032;-79
2022/06/21 12:28:35;;;;;;;1.17;0.10;;;23.70;53.10;;;;;;5094720;28;20078;-79
2022/06/21 12:31:11;;;;;;;1.42;0.20;;;23.70;52.50;;;;;;5094500;28;20032;-79
2022/06/21 12:33:39;;;;;;;1.38;0.20;;;23.70;52.40;;;;;;5094574;28;20112;-78
2022/06/21 12:36:13;;;;;;;2.05;0.20;;;23.70;52.50;;;;;;5094479;28;20027;-79
2022/06/21 12:38:43;;;;;;;1.63;0.10;;;23.70;52.80;;;;;;5094144;28;20085;-79
2022/06/21 12:41:40;;;;;;;1.95;0.28;;;23.70;52.30;;;;;;5094526;28;20024;-79
2022/06/21 12:44:37;;;;;;;1.80;0.28;;;23.60;52.80;;;;;;5094316;28;20020;-79
2022/06/21 12:47:12;;;;;;;1.50;0.10;;;23.60;52.30;;;;;;5094500;28;20024;-79
2022/06/21 12:50:07;;;;;;;3.10;0.30;;;23.60;53.40;;;;;;5094051;28;20044;-79
2022/06/21 12:52:47;;;;;;;2.40;0.20;;;23.70;53.00;;;;;;5094142;28;20020;-79
2022/06/21 12:55:21;;;;;;;1.50;0.17;;;23.70;52.80;;;;;;5093893;28;20028;-79
2022/06/21 12:57:50;;;;;;;1.73;0.20;;;23.70;53.30;;;;;;5094180;28;20066;-79
2022/06/21 13:00:39;;;;;;;1.40;0.20;;;23.90;52.90;;;;;;5094319;28;20024;-78
2022/06/21 13:03:29;;;;;;;2.03;0.28;;;24.00;52.90;;;;;;5094128;28;20365;-79
2022/06/21 13:06:01;;;;;;;1.23;0.10;;;24.00;52.50;;;;;;5093906;28;20085;-79
2022/06/21 13:08:45;;;;;;;1.58;0.10;;;23.90;53.30;;;;;;5094147;28;20023;-79
2022/06/21 13:11:32;;;;;;;3.45;0.20;;;23.90;52.30;;;;;;5094926;28;20069;-79
2022/06/21 13:14:00;;;;;;;3.03;0.20;;;23.90;52.20;;;;;;5093848;28;20024;-79
2022/06/21 13:16:43;;;;;;;4.13;0.30;;;23.80;52.30;;;;;;5093896;28;20024;-79
2022/06/21 13:19:29;;;;;;;2.65;0.20;;;23.70;51.20;;;;;;5094063;28;20378;-78
2022/06/21 13:22:22;;;;;;;2.92;0.30;;;23.70;50.70;;;;;;5093999;28;20024;-79
2022/06/21 13:24:54;;;;;;;4.72;0.20;;;23.50;51.80;;;;;;5093575;28;20096;-78
2022/06/21 13:27:28;;;;;;;3.65;0.20;;;23.50;52.20;;;;;;5093792;28;20032;-79
2022/06/21 13:30:11;;;;;;;2.10;0.30;;;23.60;51.50;;;;;;5093339;28;20051;-79
2022/06/21 13:32:50;;;;;;;2.63;0.30;;;23.60;52.00;;;;;;5093434;28;20081;-78
2022/06/21 13:35:46;;;;;;;2.97;0.25;;;23.40;52.40;;;;;;5093485;28;20470;-78
2022/06/21 13:38:29;;;;;;;2.45;0.43;;;23.40;52.80;;;;;;5093784;28;20095;-78
2022/06/21 13:41:10;;;;;;;2.50;0.45;;;23.40;53.30;;;;;;5093190;28;20035;-79
2022/06/21 13:43:41;;;;;;;1.77;0.30;;;23.40;52.80;;;;;;5093260;28;20021;-78
2022/06/21 13:46:24;;;;;;;2.28;0.20;;;23.50;53.20;;;;;;5093565;28;20107;-79
2022/06/21 13:48:57;;;;;;;1.60;0.30;;;23.60;53.60;;;;;;5093145;28;20055;-78
2022/06/21 13:52:07;;;;;;;2.42;0.20;;;23.70;53.60;;;;;;5093428;28;20028;-79
2022/06/21 13:54:54;;;;;;;2.67;0.20;;;23.70;52.80;;;;;;5064626;28;20032;-79
2022/06/21 13:57:58;;;;;;;1.58;0.17;;;23.70;52.40;;;;;;5093253;28;20471;-79
2022/06/21 14:00:32;;;;;;;1.27;0.30;;;23.70;52.60;;;;;;5030609;28;20025;-79